Time;durP1;ratioP1;P1;durP2;ratioP2;P2;SDS_P1;SDS_P2;PMS_P1;PMS_P2;Temp;Humidity;BMP_temperature;BMP_pressure;BME280_temperature;BME280_humidity;BME280_pressure;Samples;Min_cycle;Max_cycle;Signal;HPM_P1;HPM_P2
2022/06/17 14:47:20;;;;;;;8.20;7.53;;;45.00;22.50;;;36.21;19.54;96140.59;5079065;28;20164;-52
2022/06/17 14:50:52;;;;;;;6.32;5.93;;;45.10;21.10;;;36.97;18.12;96140.94;5031651;28;20033;-47
2022/06/17 14:53:52;;;;;;;6.50;5.88;;;45.90;19.50;;;36.23;19.07;96136.22;5028859;28;20029;-52
2022/06/17 14:56:18;;;;;;;14.43;6.37;;;47.10;18.40;;;36.71;19.13;96134.28;5027639;28;20078;-50
2022/06/17 14:59:00;;;;;;;6.70;6.20;;;47.70;17.70;;;36.70;18.66;96127.13;5028517;28;20116;-49
2022/06/17 15:02:29;;;;;;;7.38;6.90;;;48.30;17.00;;;36.26;19.78;96127.06;5028677;28;20028;-49
2022/06/17 15:04:59;;;;;;;7.55;6.88;;;48.60;16.90;;;37.07;19.56;96125.31;5027544;28;20036;-51
2022/06/17 15:07:54;;;;;;;7.57;6.97;;;49.10;16.50;;;37.34;19.00;96125.22;5027288;28;20033;-49
2022/06/17 15:10:35;;;;;;;9.88;9.05;;;49.60;16.10;;;37.90;18.57;96117.69;5027395;28;20037;-49
2022/06/17 15:16:14;;;;;;;7.53;6.78;;;50.70;15.10;;;37.93;16.81;96114.09;5028553;28;20159;-50
2022/06/17 15:18:56;;;;;;;8.45;7.95;;;51.20;14.70;;;36.80;18.85;96109.53;5028355;28;20021;-51
2022/06/17 15:21:35;;;;;;;8.20;7.45;;;51.60;14.40;;;36.62;17.41;96118.16;5027383;28;20073;-48
2022/06/17 15:24:41;;;;;;;8.88;8.07;;;51.90;14.20;;;36.49;17.55;96112.41;5028119;28;20025;-47
2022/06/17 15:27:28;;;;;;;8.18;7.57;;;52.20;13.60;;;36.13;17.38;96120.50;4920610;28;23349;-47
2022/06/17 15:30:14;;;;;;;8.68;8.00;;;52.70;13.20;;;37.35;16.51;96105.34;5000238;28;20025;-47
2022/06/17 15:32:49;;;;;;;10.70;9.95;;;53.20;13.00;;;38.03;15.96;96103.94;4996331;28;20523;-48
2022/06/17 15:35:30;;;;;;;9.77;9.15;;;53.90;12.70;;;37.86;16.99;96110.63;4990690;28;20469;-47
2022/06/17 15:38:43;;;;;;;11.77;11.13;;;54.60;12.70;;;37.77;16.03;96108.47;4987412;28;20034;-49
2022/06/17 15:41:58;;;;;;;12.00;11.00;;;55.00;12.30;;;37.55;16.28;96107.38;4987588;28;20055;-49
2022/06/17 15:44:41;;;;;;;11.05;10.43;;;55.20;12.00;;;37.86;15.88;96125.34;4986360;28;20024;-47
2022/06/17 15:47:10;;;;;;;13.55;12.75;;;55.50;11.80;;;38.64;14.09;96111.63;4987281;28;20069;-48
2022/06/17 15:49:53;;;;;;;13.60;12.60;;;55.60;11.40;;;38.64;15.08;96110.81;4985050;28;20024;-48
2022/06/17 15:52:41;;;;;;;11.80;10.98;;;55.70;11.40;;;38.67;14.68;96112.75;5013387;28;20029;-50
2022/06/17 15:55:13;;;;;;;12.00;11.27;;;55.70;11.30;;;38.28;14.55;96110.91;4987131;28;20021;-51
2022/06/17 15:57:51;;;;;;;11.20;10.50;;;55.60;11.10;;;37.50;15.37;96109.41;4991946;28;20026;-51
2022/06/17 16:00:34;;;;;;;12.00;11.20;;;55.50;11.00;;;37.67;16.02;96112.25;4970166;28;20495;-51
2022/06/17 16:03:22;;;;;;;11.73;10.77;;;55.30;11.00;;;37.91;16.28;96116.47;4973539;28;20431;-47
2022/06/17 16:05:55;;;;;;;11.05;10.45;;;55.20;11.10;;;38.04;16.59;96113.84;4971944;28;20038;-48
2022/06/17 16:08:45;;;;;;;11.10;10.30;;;55.10;11.10;;;38.55;17.87;96117.03;4980300;28;20064;-51
2022/06/17 16:11:10;;;;;;;10.40;9.80;;;55.10;11.40;;;38.76;14.85;96112.91;4972741;28;20481;-48
2022/06/17 16:13:56;;;;;;;11.40;10.70;;;55.20;11.10;;;39.05;15.59;96112.97;4973729;28;20026;-49
2022/06/17 16:16:37;;;;;;;10.35;9.65;;;55.50;11.20;;;38.55;16.39;96105.09;4972609;28;20030;-54
2022/06/17 16:19:24;;;;;;;10.52;9.80;;;55.60;11.20;;;38.07;15.86;96106.63;4972671;28;20342;-48
2022/06/17 16:22:02;;;;;;;9.52;8.93;;;55.40;11.20;;;38.21;15.71;96111.09;4971772;28;20127;-49
2022/06/17 16:25:03;;;;;;;9.55;8.85;;;55.00;11.00;;;36.79;17.21;96114.31;4969916;28;20379;-55
2022/06/17 16:27:50;;;;;;;9.20;8.60;;;54.80;11.20;;;36.59;16.93;96114.25;4983842;28;20030;-50
2022/06/17 16:30:50;;;;;;;8.82;8.13;;;54.20;11.10;;;36.12;17.20;96130.03;4998660;28;20053;-49
2022/06/17 16:33:15;;;;;;;7.88;7.15;;;53.70;11.20;;;36.78;16.53;96132.16;4984886;28;20096;-51
2022/06/17 16:35:50;;;;;;;8.00;7.40;;;53.20;11.30;;;35.49;18.22;96129.66;4987806;28;20034;-50
2022/06/17 16:38:57;;;;;;;7.93;7.43;;;52.80;11.30;;;36.32;18.51;96130.91;4985312;28;20029;-47
2022/06/17 16:44:34;;;;;;;7.60;7.03;;;52.50;11.80;;;36.62;17.18;96128.50;4997826;28;20084;-48
2022/06/17 16:47:15;;;;;;;8.63;7.90;;;52.50;11.70;;;35.94;18.66;96124.72;4971636;28;20063;-48
2022/06/17 16:49:46;;;;;;;6.68;6.22;;;52.50;11.80;;;36.30;18.24;96125.00;4972132;28;20393;-48
2022/06/17 16:52:26;;;;;;;7.88;7.10;;;52.50;11.90;;;35.66;17.75;96126.69;4971332;28;20106;-47
2022/06/17 16:54:53;;;;;;;7.15;6.10;;;52.50;11.80;;;35.19;18.75;96115.34;4987895;28;20100;-46
2022/06/17 16:57:35;;;;;;;6.00;5.55;;;52.40;11.70;;;35.73;19.06;96125.00;5003954;28;20026;-50
2022/06/17 17:00:14;;;;;;;6.80;6.15;;;52.20;11.80;;;36.07;19.66;96134.06;4981784;28;20145;-48
2022/06/17 17:02:40;;;;;;;6.28;5.72;;;52.20;12.10;;;36.25;19.55;96127.47;4971677;28;20496;-49
2022/06/17 17:05:14;;;;;;;6.65;6.22;;;52.10;12.20;;;36.39;19.06;96127.25;4972070;28;20038;-49
2022/06/17 17:07:42;;;;;;;6.90;6.50;;;52.10;12.30;;;36.47;18.11;96125.91;4955468;28;20535;-48
2022/06/17 17:10:16;;;;;;;5.13;4.63;;;52.20;12.10;;;35.66;18.78;96121.16;4970832;28;20129;-48
2022/06/17 17:12:46;;;;;;;5.40;4.57;;;51.90;12.00;;;35.51;18.73;96119.72;4971455;28;20080;-55
2022/06/17 17:15:13;;;;;;;4.70;3.40;;;51.00;11.90;;;34.79;19.22;96119.69;4970933;28;20036;-49
2022/06/17 17:17:42;;;;;;;3.38;3.05;;;49.30;12.50;;;34.01;21.88;96123.81;4971304;28;20025;-48
2022/06/17 17:20:14;;;;;;;3.50;3.30;;;47.10;13.50;;;33.63;24.65;96126.41;4972753;28;20669;-48
2022/06/17 17:22:51;;;;;;;3.28;3.08;;;45.10;15.00;;;33.10;25.08;96130.09;4987907;28;20121;-48
2022/06/17 17:25:31;;;;;;;2.97;2.53;;;43.30;16.10;;;32.69;26.05;96136.84;5003214;28;20052;-46
2022/06/17 17:28:00;;;;;;;4.97;2.85;;;41.70;17.00;;;32.19;24.92;96131.28;4971639;28;20054;-50
2022/06/17 17:30:34;;;;;;;3.42;2.92;;;40.40;17.80;;;31.63;27.20;96132.72;4972394;28;20034;-47
2022/06/17 17:33:05;;;;;;;3.67;3.35;;;39.30;18.70;;;30.97;24.92;96127.28;4955653;28;20029;-45
2022/06/17 17:35:31;;;;;;;3.63;2.35;;;38.30;18.80;;;30.52;29.60;96129.28;4972284;28;20026;-46
2022/06/17 17:37:58;;;;;;;2.83;2.63;;;37.40;19.70;;;30.08;29.04;96127.31;4973421;28;20080;-47
2022/06/17 17:40:25;;;;;;;4.68;2.50;;;36.60;20.50;;;29.57;28.92;96127.13;4972165;28;20121;-45
2022/06/17 17:42:51;;;;;;;3.00;2.20;;;35.90;20.90;;;29.31;31.09;96131.53;4956082;28;20026;-47
2022/06/17 17:45:30;;;;;;;3.92;2.42;;;35.30;21.80;;;29.12;32.77;96132.47;4987727;28;20053;-45
2022/06/17 17:47:55;;;;;;;2.53;2.33;;;34.80;23.00;;;28.76;32.00;96129.19;4972045;28;20375;-45
2022/06/17 17:50:30;;;;;;;4.18;2.38;;;34.20;23.10;;;28.14;29.17;96126.63;4971898;28;20069;-45
2022/06/17 17:53:03;;;;;;;3.60;2.00;;;33.80;22.90;;;27.78;29.44;96125.19;4973230;28;20386;-45
2022/06/17 17:55:32;;;;;;;2.97;2.38;;;33.40;23.10;;;27.55;29.26;96127.06;4955698;28;20485;-46
2022/06/17 17:58:04;;;;;;;3.90;2.40;;;32.90;23.00;;;27.37;29.95;96130.22;4972024;28;20030;-49
2022/06/17 18:00:43;;;;;;;5.30;2.65;;;32.60;23.20;;;27.27;29.75;96124.56;4971766;28;20108;-46
2022/06/17 18:03:11;;;;;;;6.50;3.00;;;32.30;23.40;;;27.22;31.57;96136.56;4988542;28;20030;-45
2022/06/17 18:05:37;;;;;;;3.35;2.40;;;32.10;23.70;;;27.26;31.29;96136.63;4972852;28;20035;-45
2022/06/17 18:08:05;;;;;;;3.65;2.72;;;31.80;24.00;;;27.34;34.14;96135.63;4970652;28;20029;-45
2022/06/17 18:10:37;;;;;;;3.25;2.22;;;31.70;24.80;;;27.26;34.17;96129.19;4986705;28;20440;-46
2022/06/17 18:13:05;;;;;;;5.28;2.40;;;31.40;25.50;;;27.02;34.17;96137.66;4970659;28;20478;-45
2022/06/17 18:15:35;;;;;;;3.05;2.20;;;31.20;25.60;;;26.84;32.81;96131.78;4986980;28;20493;-46
2022/06/17 18:18:02;;;;;;;4.07;2.40;;;31.10;25.70;;;26.77;34.38;96133.22;4925841;28;24307;-48
2022/06/17 18:20:29;;;;;;;8.13;2.38;;;30.90;26.10;;;26.62;34.22;96139.50;4951931;28;20421;-49
2022/06/17 18:22:55;;;;;;;3.78;2.60;;;30.70;26.30;;;26.37;37.96;96135.34;4967122;28;20030;-44
2022/06/17 18:25:25;;;;;;;4.40;2.40;;;30.50;27.00;;;26.15;39.61;96140.28;4980292;28;20465;-47
2022/06/17 18:27:55;;;;;;;6.10;2.60;;;30.30;27.90;;;25.90;40.57;96136.91;4976845;28;20046;-48
2022/06/17 18:30:25;;;;;;;2.28;2.00;;;30.00;28.50;;;25.59;42.04;96134.88;4951543;28;20053;-45
2022/06/17 18:32:55;;;;;;;3.00;2.00;;;29.80;29.10;;;25.29;42.16;96132.50;4951285;28;20384;-45
2022/06/17 18:35:28;;;;;;;4.43;2.25;;;29.50;29.50;;;24.96;42.57;96129.94;4951048;28;20022;-44
2022/06/17 18:37:54;;;;;;;6.32;2.17;;;29.20;29.90;;;24.76;43.16;96131.69;4929227;28;20038;-47
2022/06/17 18:40:29;;;;;;;2.63;2.22;;;28.90;30.20;;;24.62;43.55;96132.03;4976919;28;20036;-46
2022/06/17 18:42:55;;;;;;;4.78;2.78;;;28.70;31.20;;;24.53;43.39;96122.38;4970640;28;20018;-46
2022/06/17 18:45:28;;;;;;;6.60;2.53;;;28.50;31.30;;;24.40;43.95;96118.84;4969961;28;20073;-48
2022/06/17 18:48:00;;;;;;;3.75;2.42;;;28.30;32.10;;;24.26;43.68;96121.91;4971216;28;20026;-46
2022/06/17 18:50:34;;;;;;;5.90;2.30;;;28.10;32.30;;;24.15;45.07;96126.19;4970344;28;20544;-56
2022/06/17 18:53:06;;;;;;;3.13;2.25;;;27.90;32.70;;;23.90;46.18;96130.81;4971463;28;20121;-46
2022/06/17 18:55:41;;;;;;;4.47;2.50;;;27.80;33.40;;;23.68;46.92;96135.47;4971556;28;20018;-48
2022/06/17 18:58:12;;;;;;;3.40;2.50;;;27.60;33.90;;;23.60;46.27;96128.22;4970193;28;20027;-46
2022/06/17 19:00:49;;;;;;;4.07;2.20;;;27.40;34.20;;;23.48;46.41;96134.41;4970036;28;20026;-47
2022/06/17 19:03:27;;;;;;;2.45;2.25;;;27.20;34.60;;;23.33;46.57;96130.38;4970696;28;20042;-47
2022/06/17 19:05:57;;;;;;;4.38;2.20;;;27.10;34.80;;;23.22;46.41;96131.91;4970104;28;20049;-47
2022/06/17 19:19:51;;;;;;;2.63;2.00;;;26.20;35.50;;;22.47;46.19;96133.66;4951114;28;20033;-46
2022/06/17 19:22:24;;;;;;;3.97;1.83;;;26.00;35.50;;;22.32;46.18;96129.59;4950870;29;20041;-48
2022/06/17 19:24:51;;;;;;;3.85;2.13;;;25.90;35.70;;;22.21;46.82;96131.06;4951925;28;20023;-46
2022/06/17 19:27:21;;;;;;;2.13;1.98;;;25.80;35.90;;;22.02;47.11;96129.50;4951756;28;20046;-46
2022/06/17 19:29:47;;;;;;;5.45;2.20;;;25.60;36.20;;;21.89;47.35;96133.22;4950521;28;20022;-46
2022/06/17 19:32:43;;;;;;;4.72;2.30;;;25.50;36.30;;;21.76;48.09;96140.44;4967995;28;20363;-46
2022/06/17 19:35:28;;;;;;;2.53;2.03;;;25.40;36.90;;;21.64;49.30;96143.00;4955385;28;20023;-45
2022/06/17 19:37:57;;;;;;;3.03;2.10;;;25.20;37.20;;;21.53;48.98;96145.28;4954260;28;20122;-45
2022/06/17 19:40:27;;;;;;;3.95;1.85;;;25.10;37.30;;;21.37;49.51;96147.69;4955377;28;20026;-46
2022/06/17 19:42:54;;;;;;;4.05;2.88;;;25.00;37.70;;;21.24;50.18;96154.78;4954243;28;20050;-49
2022/06/17 19:45:23;;;;;;;3.30;2.08;;;24.80;37.90;;;21.08;50.51;96150.19;4954048;28;20417;-47
2022/06/17 19:47:52;;;;;;;5.40;2.10;;;24.70;38.20;;;20.96;50.56;96151.59;4953692;28;20038;-45
2022/06/17 19:50:24;;;;;;;2.30;1.90;;;24.60;38.50;;;20.84;50.31;96154.16;4969964;28;20033;-46
2022/06/17 19:52:56;;;;;;;2.60;1.98;;;24.40;38.70;;;20.72;50.64;96154.75;4877468;28;24257;-47
2022/06/17 19:55:32;;;;;;;3.97;2.20;;;24.30;38.80;;;20.63;50.97;96153.94;4954220;28;20125;-46
2022/06/17 19:58:19;;;;;;;2.30;1.70;;;24.20;39.00;;;20.51;51.56;96151.84;4953854;28;20031;-48
2022/06/17 20:00:45;;;;;;;2.58;2.10;;;24.10;39.10;;;20.35;51.04;96153.34;4954680;28;20133;-48
2022/06/17 20:03:24;;;;;;;3.55;1.98;;;24.00;39.20;;;20.26;51.34;96149.81;4953769;28;20019;-46
2022/06/17 20:05:51;;;;;;;1.90;1.70;;;23.90;39.60;;;20.11;50.64;96157.22;4938119;28;20031;-46
2022/06/17 20:08:19;;;;;;;2.10;1.90;;;23.70;39.40;;;20.01;51.88;96164.81;4954902;28;20121;-45
2022/06/17 20:10:46;;;;;;;3.95;2.00;;;23.60;39.60;;;19.94;52.50;96165.25;4953644;28;20057;-49
2022/06/17 20:13:23;;;;;;;2.30;2.10;;;23.60;39.90;;;19.85;52.00;96162.50;4969429;28;20034;-47
2022/06/17 20:15:52;;;;;;;5.50;2.08;;;23.40;40.10;;;19.73;52.83;96164.19;4953395;28;20125;-47
2022/06/17 20:18:26;;;;;;;4.70;1.88;;;23.30;40.20;;;19.66;52.81;96171.94;4954868;28;20026;-48
2022/06/17 20:20:52;;;;;;;4.22;1.77;;;23.30;40.70;;;19.58;54.19;96170.72;4954714;28;20034;-44
2022/06/17 20:23:24;;;;;;;3.75;2.10;;;23.10;40.70;;;19.42;54.73;96170.28;4969367;28;20027;-45
2022/06/17 20:25:50;;;;;;;7.60;2.10;;;23.00;41.20;;;19.31;55.34;96167.06;4985589;28;20035;-47
2022/06/17 20:28:20;;;;;;;6.18;2.03;;;22.90;41.30;;;19.27;55.28;96167.94;4966007;28;20023;-46
2022/06/17 20:30:46;;;;;;;1.92;1.80;;;22.90;41.80;;;19.16;55.23;96170.09;4945806;28;20061;-47
2022/06/17 20:33:14;;;;;;;7.95;2.13;;;22.80;41.80;;;19.01;55.31;96171.22;4954500;28;20023;-47
2022/06/17 20:35:43;;;;;;;3.85;1.90;;;22.70;42.00;;;19.00;55.45;96171.56;4954440;28;20552;-46
2022/06/17 20:38:14;;;;;;;2.30;1.60;;;22.60;42.40;;;18.93;54.81;96169.28;4953115;28;20022;-45
2022/06/17 20:40:44;;;;;;;2.03;1.73;;;22.50;42.50;;;18.91;54.63;96163.38;4952975;28;20097;-44
2022/06/17 20:43:12;;;;;;;1.85;1.75;;;22.40;42.50;;;18.88;54.81;96163.97;4953094;28;20105;-48
2022/06/17 20:51:25;;;;;;;3.05;1.85;;;22.30;43.10;;;18.64;56.23;96173.06;4951759;28;20073;-45
2022/06/17 20:53:53;;;;;;;2.30;2.10;;;22.20;43.30;;;18.66;57.79;96170.06;4953910;28;20060;-45
